sensor_id;sensor_type;location;lat;lon;timestamp;temperature;humidity
26342;DHT22;14054;50.108;8.640;2023-05-10T00:00:27;14.00;99.90
26342;DHT22;14054;50.108;8.640;2023-05-10T00:02:53;13.90;99.90
26342;DHT22;14054;50.108;8.640;2023-05-10T00:05:18;13.80;99.90
26342;DHT22;14054;50.108;8.640;2023-05-10T00:07:44;13.80;99.90
26342;DHT22;14054;50.108;8.640;2023-05-10T00:10:12;13.70;99.90
26342;DHT22;14054;50.108;8.640;2023-05-10T00:12:38;13.70;99.90
26342;DHT22;14054;50.108;8.640;2023-05-10T00:15:04;13.60;99.90
26342;DHT22;14054;50.108;8.640;2023-05-10T00:17:30;13.50;99.90
26342;DHT22;14054;50.108;8.640;2023-05-10T00:19:56;13.50;99.90
26342;DHT22;14054;50.108;8.640;2023-05-10T00:22:21;13.50;99.90
26342;DHT22;14054;50.108;8.640;2023-05-10T00:24:46;13.40;99.90
26342;DHT22;14054;50.108;8.640;2023-05-10T00:27:12;13.40;99.90
26342;DHT22;14054;50.108;8.640;2023-05-10T00:29:37;13.50;99.90
26342;DHT22;14054;50.108;8.640;2023-05-10T00:32:03;13.40;99.90
26342;DHT22;14054;50.108;8.640;2023-05-10T00:34:29;13.40;99.90
26342;DHT22;14054;50.108;8.640;2023-05-10T00:36:54;13.40;99.90
26342;DHT22;14054;50.108;8.640;2023-05-10T00:39:20;13.30;99.90
26342;DHT22;14054;50.108;8.640;2023-05-10T00:41:45;13.30;99.90
26342;DHT22;14054;50.108;8.640;2023-05-10T00:44:11;13.30;99.90
26342;DHT22;14054;50.108;8.640;2023-05-10T00:46:36;13.30;99.90
26342;DHT22;14054;50.108;8.640;2023-05-10T00:49:02;13.20;99.90
26342;DHT22;14054;50.108;8.640;2023-05-10T00:51:29;13.20;99.90
26342;DHT22;14054;50.108;8.640;2023-05-10T00:53:56;13.20;99.90
26342;DHT22;14054;50.108;8.640;2023-05-10T00:56:22;13.20;99.90
26342;DHT22;14054;50.108;8.640;2023-05-10T00:58:49;13.10;99.90
26342;DHT22;14054;50.108;8.640;2023-05-10T01:01:15;13.20;99.90
26342;DHT22;14054;50.108;8.640;2023-05-10T01:03:41;13.20;99.90
26342;DHT22;14054;50.108;8.640;2023-05-10T01:06:07;13.20;99.90
26342;DHT22;14054;50.108;8.640;2023-05-10T01:08:32;13.10;99.90
26342;DHT22;14054;50.108;8.640;2023-05-10T01:10:58;13.10;99.90
26342;DHT22;14054;50.108;8.640;2023-05-10T01:13:37;13.10;99.90
26342;DHT22;14054;50.108;8.640;2023-05-10T01:16:04;13.00;99.90
26342;DHT22;14054;50.108;8.640;2023-05-10T01:18:33;13.00;99.90
26342;DHT22;14054;50.108;8.640;2023-05-10T01:34:52;12.90;99.90
26342;DHT22;14054;50.108;8.640;2023-05-10T01:37:36;12.90;99.90
26342;DHT22;14054;50.108;8.640;2023-05-10T01:43:11;12.90;99.90
26342;DHT22;14054;50.108;8.640;2023-05-10T01:45:53;12.90;99.90
26342;DHT22;14054;50.108;8.640;2023-05-10T01:48:23;12.80;99.90
26342;DHT22;14054;50.108;8.640;2023-05-10T01:50:52;12.80;99.90
26342;DHT22;14054;50.108;8.640;2023-05-10T01:53:20;12.90;99.90
26342;DHT22;14054;50.108;8.640;2023-05-10T01:55:49;12.80;99.90
26342;DHT22;14054;50.108;8.640;2023-05-10T01:58:22;12.80;99.90
26342;DHT22;14054;50.108;8.640;2023-05-10T02:00:50;12.80;99.90
26342;DHT22;14054;50.108;8.640;2023-05-10T02:03:18;12.80;99.90
26342;DHT22;14054;50.108;8.640;2023-05-10T02:05:46;12.80;99.90
26342;DHT22;14054;50.108;8.640;2023-05-10T02:08:13;12.80;99.90
26342;DHT22;14054;50.108;8.640;2023-05-10T02:10:41;12.80;99.90
26342;DHT22;14054;50.108;8.640;2023-05-10T02:13:08;12.80;99.90
26342;DHT22;14054;50.108;8.640;2023-05-10T02:15:36;12.80;99.90
26342;DHT22;14054;50.108;8.640;2023-05-10T02:18:03;12.80;99.90
26342;DHT22;14054;50.108;8.640;2023-05-10T02:20:30;12.80;99.90
26342;DHT22;14054;50.108;8.640;2023-05-10T02:22:57;12.80;99.90
26342;DHT22;14054;50.108;8.640;2023-05-10T02:25:24;12.80;99.90
26342;DHT22;14054;50.108;8.640;2023-05-10T02:27:52;12.80;99.90
26342;DHT22;14054;50.108;8.640;2023-05-10T02:30:19;12.80;99.90
26342;DHT22;14054;50.108;8.640;2023-05-10T02:32:46;12.80;99.90
26342;DHT22;14054;50.108;8.640;2023-05-10T02:35:13;12.80;99.90
26342;DHT22;14054;50.108;8.640;2023-05-10T02:37:41;12.80;99.90
26342;DHT22;14054;50.108;8.640;2023-05-10T02:40:07;12.70;99.90
26342;DHT22;14054;50.108;8.640;2023-05-10T02:42:36;12.70;99.90
26342;DHT22;14054;50.108;8.640;2023-05-10T02:45:07;12.70;99.90
26342;DHT22;14054;50.108;8.640;2023-05-10T02:47:33;12.70;99.90
26342;DHT22;14054;50.108;8.640;2023-05-10T02:49:59;12.70;99.90
26342;DHT22;14054;50.108;8.640;2023-05-10T02:52:28;12.70;99.90
26342;DHT22;14054;50.108;8.640;2023-05-10T02:54:58;12.70;99.90
26342;DHT22;14054;50.108;8.640;2023-05-10T02:57:28;12.70;99.90
26342;DHT22;14054;50.108;8.640;2023-05-10T02:59:56;12.70;99.90
26342;DHT22;14054;50.108;8.640;2023-05-10T03:02:22;12.60;99.90
26342;DHT22;14054;50.108;8.640;2023-05-10T03:04:48;12.60;99.90
26342;DHT22;14054;50.108;8.640;2023-05-10T03:07:13;12.60;99.90
26342;DHT22;14054;50.108;8.640;2023-05-10T03:09:40;12.60;99.90
26342;DHT22;14054;50.108;8.640;2023-05-10T03:12:27;12.60;99.90
26342;DHT22;14054;50.108;8.640;2023-05-10T03:15:06;12.60;99.90
26342;DHT22;14054;50.108;8.640;2023-05-10T03:20:29;12.60;99.90
26342;DHT22;14054;50.108;8.640;2023-05-10T03:23:04;12.60;99.90
26342;DHT22;14054;50.108;8.640;2023-05-10T03:25:32;12.60;99.90
26342;DHT22;14054;50.108;8.640;2023-05-10T03:28:00;12.60;99.90
26342;DHT22;14054;50.108;8.640;2023-05-10T03:30:26;12.60;99.90
26342;DHT22;14054;50.108;8.640;2023-05-10T03:32:52;12.60;99.90
26342;DHT22;14054;50.108;8.640;2023-05-10T03:35:17;12.60;99.90
26342;DHT22;14054;50.108;8.640;2023-05-10T03:37:43;12.60;99.90
26342;DHT22;14054;50.108;8.640;2023-05-10T03:40:10;12.60;99.90
26342;DHT22;14054;50.108;8.640;2023-05-10T03:42:35;12.60;99.90
26342;DHT22;14054;50.108;8.640;2023-05-10T03:45:01;12.60;99.90
26342;DHT22;14054;50.108;8.640;2023-05-10T03:47:26;12.70;99.90
26342;DHT22;14054;50.108;8.640;2023-05-10T03:49:52;12.60;99.90
26342;DHT22;14054;50.108;8.640;2023-05-10T03:52:17;12.60;99.90
26342;DHT22;14054;50.108;8.640;2023-05-10T03:54:43;12.60;99.90
26342;DHT22;14054;50.108;8.640;2023-05-10T03:57:08;12.60;99.90
26342;DHT22;14054;50.108;8.640;2023-05-10T03:59:34;12.60;99.90
26342;DHT22;14054;50.108;8.640;2023-05-10T04:02:00;12.60;99.90
26342;DHT22;14054;50.108;8.640;2023-05-10T04:04:26;12.70;99.90
26342;DHT22;14054;50.108;8.640;2023-05-10T04:06:51;12.70;99.90
26342;DHT22;14054;50.108;8.640;2023-05-10T04:09:16;12.70;99.90
26342;DHT22;14054;50.108;8.640;2023-05-10T04:11:42;12.70;99.90
26342;DHT22;14054;50.108;8.640;2023-05-10T04:14:08;12.70;99.90
26342;DHT22;14054;50.108;8.640;2023-05-10T04:16:34;12.70;99.90
26342;DHT22;14054;50.108;8.640;2023-05-10T04:18:59;12.80;99.90
26342;DHT22;14054;50.108;8.640;2023-05-10T04:21:25;12.70;99.90
26342;DHT22;14054;50.108;8.640;2023-05-10T04:23:50;12.70;99.90
26342;DHT22;14054;50.108;8.640;2023-05-10T04:26:16;12.80;99.90
26342;DHT22;14054;50.108;8.640;2023-05-10T04:28:41;12.80;99.90
26342;DHT22;14054;50.108;8.640;2023-05-10T04:31:08;12.80;99.90
26342;DHT22;14054;50.108;8.640;2023-05-10T04:33:34;12.80;99.90
26342;DHT22;14054;50.108;8.640;2023-05-10T04:36:01;12.80;99.90
26342;DHT22;14054;50.108;8.640;2023-05-10T04:38:27;12.90;99.90
26342;DHT22;14054;50.108;8.640;2023-05-10T04:40:53;12.90;99.90
26342;DHT22;14054;50.108;8.640;2023-05-10T04:43:18;12.90;99.90
26342;DHT22;14054;50.108;8.640;2023-05-10T04:45:44;13.00;99.90
26342;DHT22;14054;50.108;8.640;2023-05-10T04:48:09;13.00;99.90
26342;DHT22;14054;50.108;8.640;2023-05-10T04:50:35;13.00;99.90
26342;DHT22;14054;50.108;8.640;2023-05-10T04:53:00;13.00;99.90
26342;DHT22;14054;50.108;8.640;2023-05-10T04:55:26;13.00;99.90
26342;DHT22;14054;50.108;8.640;2023-05-10T04:57:52;13.10;99.90
26342;DHT22;14054;50.108;8.640;2023-05-10T05:00:18;13.10;99.90
26342;DHT22;14054;50.108;8.640;2023-05-10T05:02:44;13.10;99.90
26342;DHT22;14054;50.108;8.640;2023-05-10T05:05:11;13.10;99.90
26342;DHT22;14054;50.108;8.640;2023-05-10T05:07:36;13.10;99.90
26342;DHT22;14054;50.108;8.640;2023-05-10T05:10:04;13.20;99.90
26342;DHT22;14054;50.108;8.640;2023-05-10T05:12:30;13.20;99.90
26342;DHT22;14054;50.108;8.640;2023-05-10T05:14:55;13.20;99.90
26342;DHT22;14054;50.108;8.640;2023-05-10T05:17:21;13.20;99.90
26342;DHT22;14054;50.108;8.640;2023-05-10T05:19:46;13.20;99.90
26342;DHT22;14054;50.108;8.640;2023-05-10T05:22:12;13.20;99.90
26342;DHT22;14054;50.108;8.640;2023-05-10T05:24:37;13.20;99.90
26342;DHT22;14054;50.108;8.640;2023-05-10T05:27:06;13.10;99.90
26342;DHT22;14054;50.108;8.640;2023-05-10T05:29:32;13.20;99.90
26342;DHT22;14054;50.108;8.640;2023-05-10T05:31:57;13.20;99.90
26342;DHT22;14054;50.108;8.640;2023-05-10T05:34:23;13.20;99.90
26342;DHT22;14054;50.108;8.640;2023-05-10T05:36:49;13.30;99.90
26342;DHT22;14054;50.108;8.640;2023-05-10T05:39:15;13.30;99.90
26342;DHT22;14054;50.108;8.640;2023-05-10T05:41:41;13.30;99.90
26342;DHT22;14054;50.108;8.640;2023-05-10T05:44:06;13.30;99.90
26342;DHT22;14054;50.108;8.640;2023-05-10T05:46:32;13.30;99.90
26342;DHT22;14054;50.108;8.640;2023-05-10T05:48:57;13.30;99.90
26342;DHT22;14054;50.108;8.640;2023-05-10T05:51:23;13.30;99.90
26342;DHT22;14054;50.108;8.640;2023-05-10T05:53:48;13.30;99.90
26342;DHT22;14054;50.108;8.640;2023-05-10T05:56:14;13.40;99.90
26342;DHT22;14054;50.108;8.640;2023-05-10T05:58:39;13.40;99.90
26342;DHT22;14054;50.108;8.640;2023-05-10T06:01:05;13.40;99.90
26342;DHT22;14054;50.108;8.640;2023-05-10T06:03:30;13.40;99.90
26342;DHT22;14054;50.108;8.640;2023-05-10T06:05:56;13.40;99.90
26342;DHT22;14054;50.108;8.640;2023-05-10T06:08:21;13.50;99.90
26342;DHT22;14054;50.108;8.640;2023-05-10T06:10:47;13.50;99.90
26342;DHT22;14054;50.108;8.640;2023-05-10T06:13:13;13.60;99.90
26342;DHT22;14054;50.108;8.640;2023-05-10T06:15:38;13.70;99.90
26342;DHT22;14054;50.108;8.640;2023-05-10T06:18:04;13.90;99.90
26342;DHT22;14054;50.108;8.640;2023-05-10T06:20:29;14.00;99.90
26342;DHT22;14054;50.108;8.640;2023-05-10T06:22:57;13.90;99.90
26342;DHT22;14054;50.108;8.640;2023-05-10T06:25:22;14.10;99.90
26342;DHT22;14054;50.108;8.640;2023-05-10T06:27:48;14.20;99.90
26342;DHT22;14054;50.108;8.640;2023-05-10T06:30:14;14.20;99.90
26342;DHT22;14054;50.108;8.640;2023-05-10T06:32:40;14.20;99.90
26342;DHT22;14054;50.108;8.640;2023-05-10T06:35:07;14.10;99.90
26342;DHT22;14054;50.108;8.640;2023-05-10T06:37:33;14.10;99.90
26342;DHT22;14054;50.108;8.640;2023-05-10T06:39:58;14.10;99.90
26342;DHT22;14054;50.108;8.640;2023-05-10T06:42:24;14.20;99.90
26342;DHT22;14054;50.108;8.640;2023-05-10T06:44:50;14.20;99.90
26342;DHT22;14054;50.108;8.640;2023-05-10T06:47:16;14.20;99.90
26342;DHT22;14054;50.108;8.640;2023-05-10T06:49:42;14.30;99.90
26342;DHT22;14054;50.108;8.640;2023-05-10T06:52:07;14.30;99.90
26342;DHT22;14054;50.108;8.640;2023-05-10T06:54:33;14.30;99.90
26342;DHT22;14054;50.108;8.640;2023-05-10T06:56:58;14.40;99.90
26342;DHT22;14054;50.108;8.640;2023-05-10T06:59:24;14.50;99.90
26342;DHT22;14054;50.108;8.640;2023-05-10T07:01:50;14.60;99.90
26342;DHT22;14054;50.108;8.640;2023-05-10T07:04:16;14.80;99.90
26342;DHT22;14054;50.108;8.640;2023-05-10T07:06:42;14.90;99.90
26342;DHT22;14054;50.108;8.640;2023-05-10T07:09:08;14.80;99.90
26342;DHT22;14054;50.108;8.640;2023-05-10T07:11:34;14.70;99.90
26342;DHT22;14054;50.108;8.640;2023-05-10T07:13:59;14.60;99.90
26342;DHT22;14054;50.108;8.640;2023-05-10T07:16:25;14.60;99.90
26342;DHT22;14054;50.108;8.640;2023-05-10T07:18:51;14.50;99.90
26342;DHT22;14054;50.108;8.640;2023-05-10T07:21:16;14.50;99.90
26342;DHT22;14054;50.108;8.640;2023-05-10T07:23:41;14.50;99.90
26342;DHT22;14054;50.108;8.640;2023-05-10T07:26:07;14.60;99.90
26342;DHT22;14054;50.108;8.640;2023-05-10T07:28:33;14.60;99.90
26342;DHT22;14054;50.108;8.640;2023-05-10T07:30:58;14.60;99.90
26342;DHT22;14054;50.108;8.640;2023-05-10T07:33:24;14.60;99.90
26342;DHT22;14054;50.108;8.640;2023-05-10T07:35:50;14.70;99.90
26342;DHT22;14054;50.108;8.640;2023-05-10T07:38:15;14.70;99.90
26342;DHT22;14054;50.108;8.640;2023-05-10T07:40:42;14.70;99.90
26342;DHT22;14054;50.108;8.640;2023-05-10T07:43:08;14.80;99.90
26342;DHT22;14054;50.108;8.640;2023-05-10T07:45:34;14.80;99.90
26342;DHT22;14054;50.108;8.640;2023-05-10T07:48:06;14.90;99.90
26342;DHT22;14054;50.108;8.640;2023-05-10T07:50:31;14.90;99.90
26342;DHT22;14054;50.108;8.640;2023-05-10T07:52:57;15.00;99.90
26342;DHT22;14054;50.108;8.640;2023-05-10T07:55:22;15.30;99.90
26342;DHT22;14054;50.108;8.640;2023-05-10T07:57:48;15.30;99.90
26342;DHT22;14054;50.108;8.640;2023-05-10T08:00:17;15.00;99.90
26342;DHT22;14054;50.108;8.640;2023-05-10T08:02:43;15.10;99.90
26342;DHT22;14054;50.108;8.640;2023-05-10T08:05:08;15.20;99.90
26342;DHT22;14054;50.108;8.640;2023-05-10T08:07:34;15.30;99.90
26342;DHT22;14054;50.108;8.640;2023-05-10T08:10:00;15.50;99.90
26342;DHT22;14054;50.108;8.640;2023-05-10T08:12:26;15.60;99.90
26342;DHT22;14054;50.108;8.640;2023-05-10T08:14:51;15.40;99.90
26342;DHT22;14054;50.108;8.640;2023-05-10T08:17:17;15.50;99.90
26342;DHT22;14054;50.108;8.640;2023-05-10T08:19:42;15.70;99.90
26342;DHT22;14054;50.108;8.640;2023-05-10T08:22:08;15.70;99.90
26342;DHT22;14054;50.108;8.640;2023-05-10T08:24:33;15.80;99.90
26342;DHT22;14054;50.108;8.640;2023-05-10T08:27:06;15.80;99.90
26342;DHT22;14054;50.108;8.640;2023-05-10T08:29:31;16.00;99.90
26342;DHT22;14054;50.108;8.640;2023-05-10T08:31:57;15.90;99.90
26342;DHT22;14054;50.108;8.640;2023-05-10T08:34:22;15.90;99.90
26342;DHT22;14054;50.108;8.640;2023-05-10T08:36:48;16.00;99.90
26342;DHT22;14054;50.108;8.640;2023-05-10T08:39:14;16.00;99.90
26342;DHT22;14054;50.108;8.640;2023-05-10T08:41:40;15.80;99.90
26342;DHT22;14054;50.108;8.640;2023-05-10T08:44:09;15.80;99.90
26342;DHT22;14054;50.108;8.640;2023-05-10T08:46:37;15.80;99.90
26342;DHT22;14054;50.108;8.640;2023-05-10T08:49:06;16.00;99.90
26342;DHT22;14054;50.108;8.640;2023-05-10T08:51:36;15.90;99.90
26342;DHT22;14054;50.108;8.640;2023-05-10T08:54:03;16.20;99.90
26342;DHT22;14054;50.108;8.640;2023-05-10T08:56:29;16.50;99.90
26342;DHT22;14054;50.108;8.640;2023-05-10T08:58:55;16.70;99.90
26342;DHT22;14054;50.108;8.640;2023-05-10T09:01:21;16.70;99.90
26342;DHT22;14054;50.108;8.640;2023-05-10T09:03:47;16.60;99.90
26342;DHT22;14054;50.108;8.640;2023-05-10T09:06:13;16.50;99.90
26342;DHT22;14054;50.108;8.640;2023-05-10T09:08:41;16.50;99.90
26342;DHT22;14054;50.108;8.640;2023-05-10T09:11:07;16.40;99.90
26342;DHT22;14054;50.108;8.640;2023-05-10T09:13:35;16.30;99.90
26342;DHT22;14054;50.108;8.640;2023-05-10T09:16:01;16.30;99.90
26342;DHT22;14054;50.108;8.640;2023-05-10T09:18:27;16.30;99.90
26342;DHT22;14054;50.108;8.640;2023-05-10T09:20:53;16.60;99.90
26342;DHT22;14054;50.108;8.640;2023-05-10T09:23:19;16.60;99.90
26342;DHT22;14054;50.108;8.640;2023-05-10T09:25:45;16.50;99.90
26342;DHT22;14054;50.108;8.640;2023-05-10T09:28:11;16.50;99.90
26342;DHT22;14054;50.108;8.640;2023-05-10T09:30:37;16.50;99.90
26342;DHT22;14054;50.108;8.640;2023-05-10T09:33:03;16.30;99.90
26342;DHT22;14054;50.108;8.640;2023-05-10T09:35:30;16.40;99.90
26342;DHT22;14054;50.108;8.640;2023-05-10T09:37:59;16.60;99.90
26342;DHT22;14054;50.108;8.640;2023-05-10T09:40:26;16.80;99.90
26342;DHT22;14054;50.108;8.640;2023-05-10T09:42:56;16.90;99.90
26342;DHT22;14054;50.108;8.640;2023-05-10T09:45:30;17.10;99.90
26342;DHT22;14054;50.108;8.640;2023-05-10T09:47:56;17.20;99.90
26342;DHT22;14054;50.108;8.640;2023-05-10T09:50:22;17.60;99.90
26342;DHT22;14054;50.108;8.640;2023-05-10T09:53:02;17.60;99.90
26342;DHT22;14054;50.108;8.640;2023-05-10T09:55:42;17.70;99.90
26342;DHT22;14054;50.108;8.640;2023-05-10T09:58:10;17.50;99.90
26342;DHT22;14054;50.108;8.640;2023-05-10T10:00:38;17.00;99.90
26342;DHT22;14054;50.108;8.640;2023-05-10T10:03:04;16.80;99.90
26342;DHT22;14054;50.108;8.640;2023-05-10T10:05:30;16.20;99.90
26342;DHT22;14054;50.108;8.640;2023-05-10T10:08:03;15.90;99.90
26342;DHT22;14054;50.108;8.640;2023-05-10T10:10:29;15.70;99.90
26342;DHT22;14054;50.108;8.640;2023-05-10T10:12:55;15.60;99.90
26342;DHT22;14054;50.108;8.640;2023-05-10T10:15:22;15.50;99.90
26342;DHT22;14054;50.108;8.640;2023-05-10T10:17:48;15.70;99.90
26342;DHT22;14054;50.108;8.640;2023-05-10T10:20:15;16.10;99.90
26342;DHT22;14054;50.108;8.640;2023-05-10T10:22:41;16.20;99.90
26342;DHT22;14054;50.108;8.640;2023-05-10T10:25:07;16.00;99.90
26342;DHT22;14054;50.108;8.640;2023-05-10T10:27:56;16.20;99.90
26342;DHT22;14054;50.108;8.640;2023-05-10T10:30:46;16.50;99.90
26342;DHT22;14054;50.108;8.640;2023-05-10T10:33:51;16.50;99.90
26342;DHT22;14054;50.108;8.640;2023-05-10T10:36:20;16.30;99.90
26342;DHT22;14054;50.108;8.640;2023-05-10T10:41:31;15.80;99.90
26342;DHT22;14054;50.108;8.640;2023-05-10T10:44:22;15.70;99.90
26342;DHT22;14054;50.108;8.640;2023-05-10T10:49:28;15.50;99.90
26342;DHT22;14054;50.108;8.640;2023-05-10T10:52:20;15.60;99.90
26342;DHT22;14054;50.108;8.640;2023-05-10T10:55:08;15.60;99.90
26342;DHT22;14054;50.108;8.640;2023-05-10T11:00:29;16.40;99.90
26342;DHT22;14054;50.108;8.640;2023-05-10T11:03:05;16.50;99.90
26342;DHT22;14054;50.108;8.640;2023-05-10T11:05:51;16.50;99.90
26342;DHT22;14054;50.108;8.640;2023-05-10T11:08:28;16.30;99.90
26342;DHT22;14054;50.108;8.640;2023-05-10T11:13:44;16.60;99.90
26342;DHT22;14054;50.108;8.640;2023-05-10T11:16:18;17.10;99.90
26342;DHT22;14054;50.108;8.640;2023-05-10T11:21:19;17.60;99.90
26342;DHT22;14054;50.108;8.640;2023-05-10T11:26:14;17.30;99.90
26342;DHT22;14054;50.108;8.640;2023-05-10T11:28:47;17.20;99.90
26342;DHT22;14054;50.108;8.640;2023-05-10T11:31:14;17.10;99.90
26342;DHT22;14054;50.108;8.640;2023-05-10T11:33:51;17.00;99.90
26342;DHT22;14054;50.108;8.640;2023-05-10T11:36:19;16.90;99.90
26342;DHT22;14054;50.108;8.640;2023-05-10T11:38:45;16.60;99.90
26342;DHT22;14054;50.108;8.640;2023-05-10T11:41:11;16.60;99.90
26342;DHT22;14054;50.108;8.640;2023-05-10T11:43:39;16.50;99.90
26342;DHT22;14054;50.108;8.640;2023-05-10T11:46:09;16.40;99.90
26342;DHT22;14054;50.108;8.640;2023-05-10T11:48:36;16.40;99.90
26342;DHT22;14054;50.108;8.640;2023-05-10T11:51:02;16.30;99.90
26342;DHT22;14054;50.108;8.640;2023-05-10T11:53:30;16.10;99.90
26342;DHT22;14054;50.108;8.640;2023-05-10T11:56:06;16.00;99.90
26342;DHT22;14054;50.108;8.640;2023-05-10T11:58:32;16.00;99.90
26342;DHT22;14054;50.108;8.640;2023-05-10T12:00:59;16.10;99.90
26342;DHT22;14054;50.108;8.640;2023-05-10T12:03:25;16.30;99.90
26342;DHT22;14054;50.108;8.640;2023-05-10T12:05:51;16.60;99.90
26342;DHT22;14054;50.108;8.640;2023-05-10T12:08:22;17.00;99.90
26342;DHT22;14054;50.108;8.640;2023-05-10T12:10:48;17.30;99.90
26342;DHT22;14054;50.108;8.640;2023-05-10T12:13:14;17.60;99.90
26342;DHT22;14054;50.108;8.640;2023-05-10T12:15:41;18.70;99.90
26342;DHT22;14054;50.108;8.640;2023-05-10T12:18:09;18.70;99.90
26342;DHT22;14054;50.108;8.640;2023-05-10T12:20:35;19.60;99.90
26342;DHT22;14054;50.108;8.640;2023-05-10T12:23:01;20.50;99.90
26342;DHT22;14054;50.108;8.640;2023-05-10T12:25:34;21.50;99.90
26342;DHT22;14054;50.108;8.640;2023-05-10T12:28:03;22.60;99.90
26342;DHT22;14054;50.108;8.640;2023-05-10T12:30:30;22.40;99.90
26342;DHT22;14054;50.108;8.640;2023-05-10T12:33:01;22.30;99.90
26342;DHT22;14054;50.108;8.640;2023-05-10T12:35:30;21.90;99.90
26342;DHT22;14054;50.108;8.640;2023-05-10T12:37:55;22.00;99.90
26342;DHT22;14054;50.108;8.640;2023-05-10T12:40:21;23.00;99.90
26342;DHT22;14054;50.108;8.640;2023-05-10T12:42:47;23.20;99.90
26342;DHT22;14054;50.108;8.640;2023-05-10T12:45:14;23.50;99.90
26342;DHT22;14054;50.108;8.640;2023-05-10T12:47:39;23.30;99.90
26342;DHT22;14054;50.108;8.640;2023-05-10T12:50:06;23.70;99.90
26342;DHT22;14054;50.108;8.640;2023-05-10T12:52:32;23.70;99.90
26342;DHT22;14054;50.108;8.640;2023-05-10T12:54:59;22.40;99.90
26342;DHT22;14054;50.108;8.640;2023-05-10T12:57:25;21.80;99.90
26342;DHT22;14054;50.108;8.640;2023-05-10T12:59:50;21.60;99.90
26342;DHT22;14054;50.108;8.640;2023-05-10T13:02:16;22.40;99.90
26342;DHT22;14054;50.108;8.640;2023-05-10T13:04:44;21.40;99.90
26342;DHT22;14054;50.108;8.640;2023-05-10T13:07:09;21.90;99.90
26342;DHT22;14054;50.108;8.640;2023-05-10T13:09:35;22.80;99.90
26342;DHT22;14054;50.108;8.640;2023-05-10T13:12:01;22.40;99.90
26342;DHT22;14054;50.108;8.640;2023-05-10T13:14:27;22.50;99.90
26342;DHT22;14054;50.108;8.640;2023-05-10T13:16:52;23.10;99.90
26342;DHT22;14054;50.108;8.640;2023-05-10T13:19:18;23.00;99.90
26342;DHT22;14054;50.108;8.640;2023-05-10T13:21:43;21.70;99.90
26342;DHT22;14054;50.108;8.640;2023-05-10T13:24:12;20.50;99.90
26342;DHT22;14054;50.108;8.640;2023-05-10T13:26:39;20.20;99.90
26342;DHT22;14054;50.108;8.640;2023-05-10T13:29:05;19.80;99.90
26342;DHT22;14054;50.108;8.640;2023-05-10T13:31:31;19.90;99.90
26342;DHT22;14054;50.108;8.640;2023-05-10T13:33:56;20.30;99.90
26342;DHT22;14054;50.108;8.640;2023-05-10T13:36:22;20.80;99.90
26342;DHT22;14054;50.108;8.640;2023-05-10T13:38:48;21.30;99.90
26342;DHT22;14054;50.108;8.640;2023-05-10T13:41:13;22.20;99.90
26342;DHT22;14054;50.108;8.640;2023-05-10T13:43:39;22.50;99.90
26342;DHT22;14054;50.108;8.640;2023-05-10T13:46:05;22.60;99.90
26342;DHT22;14054;50.108;8.640;2023-05-10T13:48:30;23.40;99.90
26342;DHT22;14054;50.108;8.640;2023-05-10T13:50:56;23.80;97.00
26342;DHT22;14054;50.108;8.640;2023-05-10T13:53:22;23.80;94.80
26342;DHT22;14054;50.108;8.640;2023-05-10T13:55:47;23.50;95.00
26342;DHT22;14054;50.108;8.640;2023-05-10T13:58:13;23.90;94.80
26342;DHT22;14054;50.108;8.640;2023-05-10T14:00:38;22.90;94.60
26342;DHT22;14054;50.108;8.640;2023-05-10T14:03:04;22.40;94.40
26342;DHT22;14054;50.108;8.640;2023-05-10T14:05:30;22.40;94.70
26342;DHT22;14054;50.108;8.640;2023-05-10T14:07:56;22.70;94.90
26342;DHT22;14054;50.108;8.640;2023-05-10T14:10:21;22.40;94.60
26342;DHT22;14054;50.108;8.640;2023-05-10T14:12:47;21.80;97.50
26342;DHT22;14054;50.108;8.640;2023-05-10T14:15:13;21.50;99.50
26342;DHT22;14054;50.108;8.640;2023-05-10T14:17:39;20.90;99.90
26342;DHT22;14054;50.108;8.640;2023-05-10T14:20:05;20.80;99.90
26342;DHT22;14054;50.108;8.640;2023-05-10T14:22:31;20.20;99.90
26342;DHT22;14054;50.108;8.640;2023-05-10T14:24:56;20.30;99.90
26342;DHT22;14054;50.108;8.640;2023-05-10T14:27:23;20.20;99.90
26342;DHT22;14054;50.108;8.640;2023-05-10T14:29:48;20.30;99.90
26342;DHT22;14054;50.108;8.640;2023-05-10T14:32:14;20.50;99.90
26342;DHT22;14054;50.108;8.640;2023-05-10T14:34:39;20.60;99.90
26342;DHT22;14054;50.108;8.640;2023-05-10T14:37:05;20.90;99.90
26342;DHT22;14054;50.108;8.640;2023-05-10T14:39:30;21.20;99.90
26342;DHT22;14054;50.108;8.640;2023-05-10T14:41:56;20.70;99.90
26342;DHT22;14054;50.108;8.640;2023-05-10T14:44:22;20.50;99.90
26342;DHT22;14054;50.108;8.640;2023-05-10T14:46:47;20.30;99.90
26342;DHT22;14054;50.108;8.640;2023-05-10T14:49:14;20.10;99.90
26342;DHT22;14054;50.108;8.640;2023-05-10T14:51:39;20.20;99.90
26342;DHT22;14054;50.108;8.640;2023-05-10T14:54:06;19.80;99.90
26342;DHT22;14054;50.108;8.640;2023-05-10T14:56:32;19.90;99.90
26342;DHT22;14054;50.108;8.640;2023-05-10T14:58:57;19.80;99.90
26342;DHT22;14054;50.108;8.640;2023-05-10T15:01:23;19.70;99.90
26342;DHT22;14054;50.108;8.640;2023-05-10T15:03:48;19.40;99.90
26342;DHT22;14054;50.108;8.640;2023-05-10T15:06:15;19.60;99.90
26342;DHT22;14054;50.108;8.640;2023-05-10T15:08:43;19.60;99.90
26342;DHT22;14054;50.108;8.640;2023-05-10T15:11:09;19.50;99.90
26342;DHT22;14054;50.108;8.640;2023-05-10T15:13:34;19.50;99.90
26342;DHT22;14054;50.108;8.640;2023-05-10T15:16:00;19.60;99.90
26342;DHT22;14054;50.108;8.640;2023-05-10T15:18:26;19.70;99.90
26342;DHT22;14054;50.108;8.640;2023-05-10T15:20:51;19.70;99.90
26342;DHT22;14054;50.108;8.640;2023-05-10T15:23:17;19.60;99.90
26342;DHT22;14054;50.108;8.640;2023-05-10T15:25:42;19.70;99.90
26342;DHT22;14054;50.108;8.640;2023-05-10T15:28:08;19.70;99.90
26342;DHT22;14054;50.108;8.640;2023-05-10T15:30:33;19.80;99.90
26342;DHT22;14054;50.108;8.640;2023-05-10T15:32:59;19.70;99.90
26342;DHT22;14054;50.108;8.640;2023-05-10T15:35:26;19.70;99.90
26342;DHT22;14054;50.108;8.640;2023-05-10T15:37:51;19.80;99.90
26342;DHT22;14054;50.108;8.640;2023-05-10T15:40:17;19.50;99.90
26342;DHT22;14054;50.108;8.640;2023-05-10T15:42:42;19.60;99.90
26342;DHT22;14054;50.108;8.640;2023-05-10T15:45:08;19.40;99.90
26342;DHT22;14054;50.108;8.640;2023-05-10T15:47:34;19.30;99.90
26342;DHT22;14054;50.108;8.640;2023-05-10T15:49:59;19.10;99.90
26342;DHT22;14054;50.108;8.640;2023-05-10T15:52:25;18.80;99.90
26342;DHT22;14054;50.108;8.640;2023-05-10T15:54:50;18.50;99.90
26342;DHT22;14054;50.108;8.640;2023-05-10T15:57:16;18.60;99.90
26342;DHT22;14054;50.108;8.640;2023-05-10T15:59:41;18.70;99.90
26342;DHT22;14054;50.108;8.640;2023-05-10T16:02:08;18.60;99.90
26342;DHT22;14054;50.108;8.640;2023-05-10T16:04:35;18.60;99.90